Time,TemperatureF,DewpointF,PressureIn,WindDirection,WindDirectionDegrees,WindSpeedMPH,WindSpeedGustMPH,Humidity,HourlyPrecipIn,Conditions,Clouds,dailyrainin,SoftwareType,DateUTC
2013-10-17 00:14:00,56.0,51.0,29.85,North,0,0.0,0.0,83,0.01,,,0.01,,2013-10-17 04:14:00,
2013-10-17 00:24:00,54.0,51.0,29.84,North,0,0.0,0.0,89,0.00,,,0.02,,2013-10-17 04:24:00,
2013-10-17 00:43:00,54.0,51.0,29.84,North,0,0.0,0.0,89,0.00,,,0.02,,2013-10-17 04:43:00,
2013-10-17 00:54:00,54.0,51.0,29.84,North,0,0.0,0.0,89,0.00,,,0.02,,2013-10-17 04:54:00,
2013-10-17 01:13:00,54.0,51.0,29.84,North,0,0.0,0.0,89,0.00,,,0.02,,2013-10-17 05:13:00,
2013-10-17 01:23:00,52.0,50.0,29.83,North,0,0.0,0.0,92,0.01,,,0.03,,2013-10-17 05:23:00,
2013-10-17 01:42:00,52.0,50.0,29.83,North,0,0.0,0.0,92,0.01,,,0.03,,2013-10-17 05:42:00,
2013-10-17 01:52:00,52.0,50.0,29.83,North,0,0.0,0.0,92,0.01,,,0.03,,2013-10-17 05:52:00,
2013-10-17 02:13:00,52.0,50.0,29.83,North,0,0.0,0.0,92,0.01,,,0.03,,2013-10-17 06:13:00,
2013-10-17 02:22:00,53.0,50.0,29.82,North,0,0.0,0.0,89,0.00,,,0.03,,2013-10-17 06:22:00,
2013-10-17 02:42:00,53.0,50.0,29.82,North,0,0.0,0.0,89,0.00,,,0.03,,2013-10-17 06:42:00,
2013-10-17 02:52:00,53.0,50.0,29.82,North,0,0.0,0.0,89,0.00,,,0.03,,2013-10-17 06:52:00,
2013-10-17 03:02:00,53.0,50.0,29.82,North,0,0.0,0.0,89,0.00,,,0.03,,2013-10-17 07:02:00,
2013-10-17 03:11:00,53.0,50.0,29.82,North,0,0.0,0.0,89,0.00,,,0.03,,2013-10-17 07:11:00,
2013-10-17 03:22:00,53.0,51.0,29.81,North,0,0.0,0.0,92,0.00,,,0.03,,2013-10-17 07:22:00,
2013-10-17 03:43:00,53.0,51.0,29.81,North,0,0.0,0.0,92,0.00,,,0.03,,2013-10-17 07:43:00,
2013-10-17 03:52:00,53.0,51.0,29.81,North,0,0.0,0.0,92,0.00,,,0.03,,2013-10-17 07:52:00,
2013-10-17 04:11:00,53.0,51.0,29.81,North,0,0.0,0.0,92,0.00,,,0.03,,2013-10-17 08:11:00,
2013-10-17 04:22:00,53.0,51.0,29.81,North,0,0.0,0.0,92,0.10,,,0.13,,2013-10-17 08:22:00,
2013-10-17 04:42:00,53.0,51.0,29.81,North,0,0.0,0.0,92,0.10,,,0.13,,2013-10-17 08:42:00,
2013-10-17 04:52:00,54.0,52.0,29.81,North,0,0.0,0.0,93,0.10,,,0.13,,2013-10-17 08:52:00,
2013-10-17 05:11:00,54.0,52.0,29.80,North,0,0.0,0.0,93,0.10,,,0.13,,2013-10-17 09:11:00,
2013-10-17 05:22:00,54.0,52.0,29.81,North,0,0.0,0.0,92,0.03,,,0.16,,2013-10-17 09:22:00,
2013-10-17 05:43:00,54.0,52.0,29.81,North,0,0.0,0.0,92,0.03,,,0.16,,2013-10-17 09:43:00,
2013-10-17 05:53:00,54.0,52.0,29.81,North,0,0.0,0.0,92,0.03,,,0.16,,2013-10-17 09:53:00,
2013-10-17 06:12:00,54.0,52.0,29.81,North,0,0.0,0.0,92,0.03,,,0.16,,2013-10-17 10:12:00,
2013-10-17 06:23:00,53.0,52.0,29.80,North,0,0.0,0.0,96,0.03,,,0.19,,2013-10-17 10:23:00,
2013-10-17 06:42:00,53.0,52.0,29.80,North,0,0.0,0.0,96,0.03,,,0.19,,2013-10-17 10:42:00,
2013-10-17 06:53:00,53.0,52.0,29.80,North,0,0.0,0.0,96,0.03,,,0.19,,2013-10-17 10:53:00,
2013-10-17 07:12:00,53.0,52.0,29.80,North,0,0.0,0.0,96,0.03,,,0.19,,2013-10-17 11:12:00,
2013-10-17 07:22:00,53.0,51.0,29.82,North,0,0.0,0.0,92,0.01,,,0.20,,2013-10-17 11:22:00,
2013-10-17 07:42:00,53.0,51.0,29.82,North,0,0.0,0.0,92,0.01,,,0.20,,2013-10-17 11:42:00,
2013-10-17 07:52:00,53.0,51.0,29.82,North,0,0.0,0.0,92,0.01,,,0.20,,2013-10-17 11:52:00,
2013-10-17 08:12:00,53.0,51.0,29.82,North,0,0.0,0.0,92,0.01,,,0.20,,2013-10-17 12:12:00,
2013-10-17 08:22:00,51.0,50.0,29.84,North,0,0.0,0.0,96,0.01,,,0.21,,2013-10-17 12:22:00,
2013-10-17 08:42:00,51.0,50.0,29.84,North,0,0.0,0.0,96,0.01,,,0.21,,2013-10-17 12:42:00,
2013-10-17 08:52:00,51.0,50.0,29.84,North,0,0.0,0.0,96,0.01,,,0.21,,2013-10-17 12:52:00,
2013-10-17 09:11:00,51.0,50.0,29.84,North,0,0.0,0.0,96,0.01,,,0.21,,2013-10-17 13:11:00,
2013-10-17 09:22:00,52.0,51.0,29.84,North,0,0.0,0.0,96,0.00,,,0.21,,2013-10-17 13:22:00,
2013-10-17 09:42:00,52.0,51.0,29.84,North,0,0.0,0.0,96,0.00,,,0.21,,2013-10-17 13:42:00,
2013-10-17 09:52:00,52.0,51.0,29.84,North,0,0.0,0.0,96,0.00,,,0.21,,2013-10-17 13:52:00,
2013-10-17 10:11:00,52.0,51.0,29.84,North,0,0.0,0.0,96,0.00,,,0.21,,2013-10-17 14:11:00,
2013-10-17 10:22:00,59.0,52.0,29.84,North,0,0.0,0.0,77,0.00,,,0.21,,2013-10-17 14:22:00,
2013-10-17 10:42:00,59.0,52.0,29.84,North,0,0.0,0.0,77,0.00,,,0.21,,2013-10-17 14:42:00,
2013-10-17 10:52:00,59.0,52.0,29.84,North,0,0.0,0.0,77,0.00,,,0.21,,2013-10-17 14:52:00,
2013-10-17 11:11:00,59.0,52.0,29.84,North,0,0.0,0.0,77,0.00,,,0.21,,2013-10-17 15:11:00,
2013-10-17 11:22:00,59.0,52.0,29.84,North,0,0.0,0.0,77,0.00,,,0.21,,2013-10-17 15:22:00,
2013-10-17 11:43:00,59.0,52.0,29.84,North,0,0.0,0.0,77,0.00,,,0.21,,2013-10-17 15:43:00,
2013-10-17 19:43:00,57.0,49.0,29.79,North,0,0.0,0.0,74,0.00,,,0.21,,2013-10-17 23:43:00,
2013-10-17 19:53:00,57.0,49.0,29.79,North,0,0.0,0.0,74,0.00,,,0.21,,2013-10-17 23:53:00,
2013-10-17 20:12:00,57.0,49.0,29.79,North,0,0.0,0.0,74,0.00,,,0.21,,2013-10-18 00:12:00,
2013-10-17 20:22:00,54.0,49.0,29.78,North,0,0.0,0.0,82,0.00,,,0.21,,2013-10-18 00:22:00,
2013-10-17 20:42:00,54.0,49.0,29.78,North,0,0.0,0.0,82,0.00,,,0.21,,2013-10-18 00:42:00,
2013-10-17 20:53:00,54.0,49.0,29.78,North,0,0.0,0.0,82,0.00,,,0.21,,2013-10-18 00:53:00,
2013-10-17 21:12:00,54.0,49.0,29.78,North,0,0.0,0.0,82,0.00,,,0.21,,2013-10-18 01:12:00,
2013-10-17 21:22:00,50.0,47.0,29.77,North,0,0.0,0.0,89,0.00,,,0.21,,2013-10-18 01:22:00,
2013-10-17 21:42:00,50.0,47.0,29.77,North,0,0.0,0.0,89,0.00,,,0.21,,2013-10-18 01:42:00,
2013-10-17 21:53:00,50.0,47.0,29.77,North,0,0.0,0.0,89,0.00,,,0.21,,2013-10-18 01:53:00,
2013-10-17 22:11:00,50.0,47.0,29.77,North,0,0.0,0.0,89,0.00,,,0.21,,2013-10-18 02:11:00,
2013-10-17 22:22:00,49.0,46.0,29.75,North,0,0.0,0.0,89,0.00,,,0.21,,2013-10-18 02:22:00,
2013-10-17 22:42:00,49.0,46.0,29.75,North,0,0.0,0.0,89,0.00,,,0.21,,2013-10-18 02:42:00,
2013-10-17 22:52:00,49.0,46.0,29.75,North,0,0.0,0.0,89,0.00,,,0.21,,2013-10-18 02:52:00,
2013-10-17 23:11:00,49.0,46.0,29.75,North,0,0.0,0.0,89,0.00,,,0.21,,2013-10-18 03:11:00,
2013-10-17 23:22:00,49.0,46.0,29.75,North,0,0.0,0.0,89,0.00,,,0.20,,2013-10-18 03:22:00,
2013-10-17 23:55:00,49.0,46.0,29.73,North,0,0.0,0.0,89,0.00,,,0.20,,2013-10-18 03:55:00,